sensor_id;sensor_type;location;lat;lon;timestamp;pressure;altitude;pressure_sealevel;temperature
49785;BMP280;35679;38.732;-121.358;2023-08-30T00:00:50;100755.09;;;28.88
49785;BMP280;35679;38.732;-121.358;2023-08-30T00:03:40;100753.72;;;28.91
49785;BMP280;35679;38.732;-121.358;2023-08-30T00:06:30;100751.50;;;28.93
49785;BMP280;35679;38.732;-121.358;2023-08-30T00:09:20;100749.03;;;28.96
49785;BMP280;35679;38.732;-121.358;2023-08-30T00:12:10;100743.59;;;28.96
49785;BMP280;35679;38.732;-121.358;2023-08-30T00:14:59;100746.56;;;29.00
49785;BMP280;35679;38.732;-121.358;2023-08-30T00:17:50;100740.03;;;29.01
49785;BMP280;35679;38.732;-121.358;2023-08-30T00:20:41;100744.88;;;29.04
49785;BMP280;35679;38.732;-121.358;2023-08-30T00:23:30;100735.66;;;29.05
49785;BMP280;35679;38.732;-121.358;2023-08-30T00:26:20;100737.78;;;29.08
49785;BMP280;35679;38.732;-121.358;2023-08-30T00:29:14;100732.03;;;29.09
49785;BMP280;35679;38.732;-121.358;2023-08-30T00:32:04;100731.78;;;29.11
49785;BMP280;35679;38.732;-121.358;2023-08-30T00:34:54;100727.97;;;29.12
49785;BMP280;35679;38.732;-121.358;2023-08-30T00:37:44;100735.53;;;29.15
49785;BMP280;35679;38.732;-121.358;2023-08-30T00:40:40;100734.94;;;29.17
49785;BMP280;35679;38.732;-121.358;2023-08-30T00:43:30;100735.47;;;29.19
49785;BMP280;35679;38.732;-121.358;2023-08-30T00:46:20;100734.09;;;29.22
49785;BMP280;35679;38.732;-121.358;2023-08-30T00:49:10;100731.91;;;29.24
49785;BMP280;35679;38.732;-121.358;2023-08-30T00:52:07;100728.38;;;29.23
49785;BMP280;35679;38.732;-121.358;2023-08-30T00:54:59;100734.03;;;29.27
49785;BMP280;35679;38.732;-121.358;2023-08-30T00:57:49;100730.22;;;29.28
49785;BMP280;35679;38.732;-121.358;2023-08-30T01:00:39;100724.50;;;29.29
49785;BMP280;35679;38.732;-121.358;2023-08-30T01:03:30;100730.47;;;29.31
49785;BMP280;35679;38.732;-121.358;2023-08-30T01:06:20;100726.66;;;29.32
49785;BMP280;35679;38.732;-121.358;2023-08-30T01:09:10;100720.13;;;29.33
49785;BMP280;35679;38.732;-121.358;2023-08-30T01:12:04;100720.66;;;29.35
49785;BMP280;35679;38.732;-121.358;2023-08-30T01:15:09;100717.94;;;29.35
49785;BMP280;35679;38.732;-121.358;2023-08-30T01:18:00;100719.56;;;29.36
49785;BMP280;35679;38.732;-121.358;2023-08-30T01:20:54;100721.19;;;29.37
49785;BMP280;35679;38.732;-121.358;2023-08-30T01:24:04;100722.78;;;29.38
49785;BMP280;35679;38.732;-121.358;2023-08-30T01:27:10;100715.16;;;29.40
49785;BMP280;35679;38.732;-121.358;2023-08-30T01:30:00;100710.53;;;29.41
49785;BMP280;35679;38.732;-121.358;2023-08-30T01:32:51;100720.31;;;29.42
49785;BMP280;35679;38.732;-121.358;2023-08-30T01:35:41;100712.16;;;29.42
49785;BMP280;35679;38.732;-121.358;2023-08-30T01:38:32;100712.16;;;29.42
49785;BMP280;35679;38.732;-121.358;2023-08-30T01:41:22;100709.13;;;29.43
49785;BMP280;35679;38.732;-121.358;2023-08-30T01:44:13;100711.84;;;29.43
49785;BMP280;35679;38.732;-121.358;2023-08-30T01:47:08;100713.78;;;29.43
49785;BMP280;35679;38.732;-121.358;2023-08-30T01:49:58;100710.75;;;29.44
49785;BMP280;35679;38.732;-121.358;2023-08-30T01:52:48;100697.16;;;29.44
49785;BMP280;35679;38.732;-121.358;2023-08-30T01:55:39;100698.78;;;29.45
49785;BMP280;35679;38.732;-121.358;2023-08-30T01:58:29;100699.88;;;29.44
49785;BMP280;35679;38.732;-121.358;2023-08-30T02:01:19;100689.00;;;29.44
49785;BMP280;35679;38.732;-121.358;2023-08-30T02:04:09;100690.09;;;29.43
49785;BMP280;35679;38.732;-121.358;2023-08-30T02:07:08;100689.31;;;29.43
49785;BMP280;35679;38.732;-121.358;2023-08-30T02:10:09;100684.97;;;29.42
49785;BMP280;35679;38.732;-121.358;2023-08-30T02:12:59;100693.94;;;29.42
49785;BMP280;35679;38.732;-121.358;2023-08-30T02:15:53;100697.69;;;29.46
49785;BMP280;35679;38.732;-121.358;2023-08-30T02:18:45;100693.34;;;29.45
49785;BMP280;35679;38.732;-121.358;2023-08-30T02:21:36;100694.44;;;29.44
49785;BMP280;35679;38.732;-121.358;2023-08-30T02:24:26;100693.94;;;29.42
49785;BMP280;35679;38.732;-121.358;2023-08-30T02:27:17;100688.50;;;29.42
49785;BMP280;35679;38.732;-121.358;2023-08-30T02:30:07;100689.59;;;29.41
49785;BMP280;35679;38.732;-121.358;2023-08-30T02:32:57;100695.03;;;29.41
49785;BMP280;35679;38.732;-121.358;2023-08-30T02:35:46;100686.06;;;29.41
49785;BMP280;35679;38.732;-121.358;2023-08-30T02:38:36;100683.13;;;29.37
49785;BMP280;35679;38.732;-121.358;2023-08-30T02:41:25;100695.91;;;29.37
49785;BMP280;35679;38.732;-121.358;2023-08-30T02:44:15;100688.56;;;29.37
49785;BMP280;35679;38.732;-121.358;2023-08-30T02:47:05;100693.47;;;29.35
49785;BMP280;35679;38.732;-121.358;2023-08-30T02:49:55;100701.94;;;29.34
49785;BMP280;35679;38.732;-121.358;2023-08-30T02:52:44;100703.81;;;29.33
49785;BMP280;35679;38.732;-121.358;2023-08-30T02:55:34;100701.41;;;29.32
49785;BMP280;35679;38.732;-121.358;2023-08-30T02:58:24;100708.72;;;29.31
49785;BMP280;35679;38.732;-121.358;2023-08-30T03:01:18;100696.53;;;29.29
49785;BMP280;35679;38.732;-121.358;2023-08-30T03:04:09;100707.66;;;29.27
49785;BMP280;35679;38.732;-121.358;2023-08-30T03:06:58;100706.88;;;29.27
49785;BMP280;35679;38.732;-121.358;2023-08-30T03:09:52;100709.03;;;29.25
49785;BMP280;35679;38.732;-121.358;2023-08-30T03:12:42;100705.53;;;29.24
49785;BMP280;35679;38.732;-121.358;2023-08-30T03:15:32;100713.44;;;29.21
49785;BMP280;35679;38.732;-121.358;2023-08-30T03:18:22;100711.03;;;29.19
49785;BMP280;35679;38.732;-121.358;2023-08-30T03:21:13;100701.53;;;29.17
49785;BMP280;35679;38.732;-121.358;2023-08-30T03:24:05;100706.75;;;29.14
49785;BMP280;35679;38.732;-121.358;2023-08-30T03:26:55;100710.53;;;29.13
49785;BMP280;35679;38.732;-121.358;2023-08-30T03:29:45;100706.25;;;29.12
49785;BMP280;35679;38.732;-121.358;2023-08-30T03:32:35;100713.84;;;29.10
49785;BMP280;35679;38.732;-121.358;2023-08-30T03:35:26;100712.53;;;29.07
49785;BMP280;35679;38.732;-121.358;2023-08-30T03:38:15;100712.00;;;29.05
49785;BMP280;35679;38.732;-121.358;2023-08-30T03:41:05;100709.56;;;29.04
49785;BMP280;35679;38.732;-121.358;2023-08-30T03:43:55;100711.75;;;29.02
49785;BMP280;35679;38.732;-121.358;2023-08-30T03:46:44;100716.69;;;29.00
49785;BMP280;35679;38.732;-121.358;2023-08-30T03:49:35;100710.22;;;28.96
49785;BMP280;35679;38.732;-121.358;2023-08-30T03:52:24;100719.16;;;28.96
49785;BMP280;35679;38.732;-121.358;2023-08-30T03:55:15;100727.59;;;28.95
49785;BMP280;35679;38.732;-121.358;2023-08-30T03:58:04;100730.63;;;28.93
49785;BMP280;35679;38.732;-121.358;2023-08-30T04:00:54;100732.00;;;28.91
49785;BMP280;35679;38.732;-121.358;2023-08-30T04:03:46;100732.84;;;28.86
49785;BMP280;35679;38.732;-121.358;2023-08-30T04:06:35;100732.59;;;28.83
49785;BMP280;35679;38.732;-121.358;2023-08-30T04:09:25;100734.22;;;28.84
49785;BMP280;35679;38.732;-121.358;2023-08-30T04:12:14;100737.22;;;28.82
49785;BMP280;35679;38.732;-121.358;2023-08-30T04:15:04;100739.41;;;28.80
49785;BMP280;35679;38.732;-121.358;2023-08-30T04:17:54;100740.50;;;28.79
49785;BMP280;35679;38.732;-121.358;2023-08-30T04:20:47;100742.72;;;28.77
49785;BMP280;35679;38.732;-121.358;2023-08-30T04:23:36;100741.38;;;28.75
49785;BMP280;35679;38.732;-121.358;2023-08-30T04:26:26;100743.81;;;28.71
49785;BMP280;35679;38.732;-121.358;2023-08-30T04:29:16;100751.41;;;28.69
49785;BMP280;35679;38.732;-121.358;2023-08-30T04:32:06;100754.44;;;28.68
49785;BMP280;35679;38.732;-121.358;2023-08-30T04:34:56;100752.00;;;28.66
49785;BMP280;35679;38.732;-121.358;2023-08-30T04:37:45;100756.09;;;28.64
49785;BMP280;35679;38.732;-121.358;2023-08-30T04:40:35;100762.06;;;28.61
49785;BMP280;35679;38.732;-121.358;2023-08-30T04:43:25;100758.84;;;28.59
49785;BMP280;35679;38.732;-121.358;2023-08-30T04:46:15;100759.13;;;28.57
49785;BMP280;35679;38.732;-121.358;2023-08-30T04:49:04;100756.69;;;28.56
49785;BMP280;35679;38.732;-121.358;2023-08-30T04:51:54;100751.31;;;28.51
49785;BMP280;35679;38.732;-121.358;2023-08-30T04:54:44;100756.22;;;28.49
49785;BMP280;35679;38.732;-121.358;2023-08-30T04:57:35;100748.63;;;28.46
49785;BMP280;35679;38.732;-121.358;2023-08-30T05:00:25;100750.00;;;28.44
49785;BMP280;35679;38.732;-121.358;2023-08-30T05:03:14;100750.28;;;28.42
49785;BMP280;35679;38.732;-121.358;2023-08-30T05:06:04;100750.84;;;28.39
49785;BMP280;35679;38.732;-121.358;2023-08-30T05:08:54;100746.00;;;28.36
49785;BMP280;35679;38.732;-121.358;2023-08-30T05:11:43;100745.44;;;28.34
49785;BMP280;35679;38.732;-121.358;2023-08-30T05:14:33;100739.50;;;28.32
49785;BMP280;35679;38.732;-121.358;2023-08-30T05:17:22;100737.34;;;28.29
49785;BMP280;35679;38.732;-121.358;2023-08-30T05:20:13;100740.63;;;28.26
49785;BMP280;35679;38.732;-121.358;2023-08-30T05:23:03;100734.41;;;28.26
49785;BMP280;35679;38.732;-121.358;2023-08-30T05:25:52;100731.44;;;28.22
49785;BMP280;35679;38.732;-121.358;2023-08-30T05:28:42;100728.19;;;28.20
49785;BMP280;35679;38.732;-121.358;2023-08-30T05:31:32;100734.97;;;28.18
49785;BMP280;35679;38.732;-121.358;2023-08-30T05:34:41;100736.06;;;28.17
49785;BMP280;35679;38.732;-121.358;2023-08-30T05:37:44;100734.69;;;28.14
49785;BMP280;35679;38.732;-121.358;2023-08-30T05:40:48;100729.84;;;28.11
49785;BMP280;35679;38.732;-121.358;2023-08-30T05:43:37;100735.81;;;28.08
49785;BMP280;35679;38.732;-121.358;2023-08-30T05:46:27;100733.69;;;28.05
49785;BMP280;35679;38.732;-121.358;2023-08-30T05:49:17;100741.28;;;28.03
49785;BMP280;35679;38.732;-121.358;2023-08-30T05:52:07;100737.22;;;28.01
49785;BMP280;35679;38.732;-121.358;2023-08-30T05:54:56;100737.50;;;27.99
49785;BMP280;35679;38.732;-121.358;2023-08-30T05:57:46;100731.81;;;27.96
49785;BMP280;35679;38.732;-121.358;2023-08-30T06:00:36;100736.75;;;27.94
49785;BMP280;35679;38.732;-121.358;2023-08-30T06:03:26;100738.91;;;27.92
49785;BMP280;35679;38.732;-121.358;2023-08-30T06:06:16;100740.81;;;27.91
49785;BMP280;35679;38.732;-121.358;2023-08-30T06:09:06;100740.28;;;27.89
49785;BMP280;35679;38.732;-121.358;2023-08-30T06:11:55;100747.06;;;27.87
49785;BMP280;35679;38.732;-121.358;2023-08-30T06:14:45;100746.28;;;27.86
49785;BMP280;35679;38.732;-121.358;2023-08-30T06:17:40;100744.09;;;27.83
49785;BMP280;35679;38.732;-121.358;2023-08-30T06:20:30;100747.38;;;27.81
49785;BMP280;35679;38.732;-121.358;2023-08-30T06:23:19;100753.09;;;27.79
49785;BMP280;35679;38.732;-121.358;2023-08-30T06:26:09;100751.75;;;27.77
49785;BMP280;35679;38.732;-121.358;2023-08-30T06:28:59;100745.78;;;27.75
49785;BMP280;35679;38.732;-121.358;2023-08-30T06:31:52;100747.69;;;27.69
49785;BMP280;35679;38.732;-121.358;2023-08-30T06:34:41;100752.88;;;27.66
49785;BMP280;35679;38.732;-121.358;2023-08-30T06:37:31;100750.97;;;27.61
49785;BMP280;35679;38.732;-121.358;2023-08-30T06:40:20;100744.47;;;27.62
49785;BMP280;35679;38.732;-121.358;2023-08-30T06:43:10;100744.47;;;27.62
49785;BMP280;35679;38.732;-121.358;2023-08-30T06:45:59;100738.22;;;27.62
49785;BMP280;35679;38.732;-121.358;2023-08-30T06:48:49;100744.75;;;27.61
49785;BMP280;35679;38.732;-121.358;2023-08-30T06:51:39;100742.59;;;27.58
49785;BMP280;35679;38.732;-121.358;2023-08-30T06:54:28;100749.34;;;27.55
49785;BMP280;35679;38.732;-121.358;2023-08-30T06:57:19;100743.41;;;27.53
49785;BMP280;35679;38.732;-121.358;2023-08-30T07:00:09;100738.25;;;27.52
49785;BMP280;35679;38.732;-121.358;2023-08-30T07:02:58;100733.09;;;27.50
49785;BMP280;35679;38.732;-121.358;2023-08-30T07:05:51;100733.38;;;27.49
49785;BMP280;35679;38.732;-121.358;2023-08-30T07:08:40;100737.47;;;27.46
49785;BMP280;35679;38.732;-121.358;2023-08-30T07:11:29;100745.03;;;27.44
49785;BMP280;35679;38.732;-121.358;2023-08-30T07:14:21;100747.25;;;27.42
49785;BMP280;35679;38.732;-121.358;2023-08-30T07:17:11;100746.16;;;27.38
49785;BMP280;35679;38.732;-121.358;2023-08-30T07:20:00;100749.13;;;27.37
49785;BMP280;35679;38.732;-121.358;2023-08-30T07:22:49;100747.50;;;27.36
49785;BMP280;35679;38.732;-121.358;2023-08-30T07:25:39;100754.28;;;27.33
49785;BMP280;35679;38.732;-121.358;2023-08-30T07:28:29;100738.88;;;27.29
49785;BMP280;35679;38.732;-121.358;2023-08-30T07:31:18;100747.28;;;27.27
49785;BMP280;35679;38.732;-121.358;2023-08-30T07:34:08;100745.13;;;27.24
49785;BMP280;35679;38.732;-121.358;2023-08-30T07:36:59;100742.13;;;27.21
49785;BMP280;35679;38.732;-121.358;2023-08-30T07:39:48;100744.31;;;27.19
49785;BMP280;35679;38.732;-121.358;2023-08-30T07:42:40;100738.63;;;27.16
49785;BMP280;35679;38.732;-121.358;2023-08-30T07:45:29;100742.44;;;27.15
49785;BMP280;35679;38.732;-121.358;2023-08-30T07:48:19;100732.94;;;27.12
49785;BMP280;35679;38.732;-121.358;2023-08-30T07:51:08;100746.50;;;27.12
49785;BMP280;35679;38.732;-121.358;2023-08-30T07:53:58;100742.44;;;27.10
49785;BMP280;35679;38.732;-121.358;2023-08-30T07:56:49;100738.66;;;27.06
49785;BMP280;35679;38.732;-121.358;2023-08-30T07:59:39;100733.78;;;27.03
49785;BMP280;35679;38.732;-121.358;2023-08-30T08:02:28;100733.78;;;27.03
49785;BMP280;35679;38.732;-121.358;2023-08-30T08:05:18;100732.44;;;27.00
49785;BMP280;35679;38.732;-121.358;2023-08-30T08:08:07;100738.41;;;26.97
49785;BMP280;35679;38.732;-121.358;2023-08-30T08:10:59;100737.03;;;26.95
49785;BMP280;35679;38.732;-121.358;2023-08-30T08:13:48;100738.38;;;26.92
49785;BMP280;35679;38.732;-121.358;2023-08-30T08:16:38;100741.38;;;26.91
49785;BMP280;35679;38.732;-121.358;2023-08-30T08:19:28;100735.41;;;26.89
49785;BMP280;35679;38.732;-121.358;2023-08-30T08:22:18;100726.72;;;26.87
49785;BMP280;35679;38.732;-121.358;2023-08-30T08:25:07;100726.22;;;26.85
49785;BMP280;35679;38.732;-121.358;2023-08-30T08:27:58;100740.03;;;26.83
49785;BMP280;35679;38.732;-121.358;2023-08-30T08:30:48;100727.84;;;26.81
49785;BMP280;35679;38.732;-121.358;2023-08-30T08:33:40;100736.22;;;26.79
49785;BMP280;35679;38.732;-121.358;2023-08-30T08:36:30;100732.97;;;26.77
49785;BMP280;35679;38.732;-121.358;2023-08-30T08:39:19;100727.00;;;26.75
49785;BMP280;35679;38.732;-121.358;2023-08-30T08:42:09;100727.56;;;26.72
49785;BMP280;35679;38.732;-121.358;2023-08-30T08:44:59;100725.94;;;26.71
49785;BMP280;35679;38.732;-121.358;2023-08-30T08:47:51;100731.88;;;26.68
49785;BMP280;35679;38.732;-121.358;2023-08-30T08:50:41;100731.09;;;26.68
49785;BMP280;35679;38.732;-121.358;2023-08-30T08:53:32;100715.41;;;26.65
49785;BMP280;35679;38.732;-121.358;2023-08-30T08:56:22;100727.59;;;26.62
49785;BMP280;35679;38.732;-121.358;2023-08-30T08:59:13;100719.72;;;26.61
49785;BMP280;35679;38.732;-121.358;2023-08-30T09:02:03;100723.75;;;26.58
49785;BMP280;35679;38.732;-121.358;2023-08-30T09:04:54;100723.25;;;26.56
49785;BMP280;35679;38.732;-121.358;2023-08-30T09:07:44;100725.94;;;26.56
49785;BMP280;35679;38.732;-121.358;2023-08-30T09:10:35;100718.34;;;26.53
49785;BMP280;35679;38.732;-121.358;2023-08-30T09:13:25;100722.41;;;26.51
49785;BMP280;35679;38.732;-121.358;2023-08-30T09:16:15;100718.06;;;26.50
49785;BMP280;35679;38.732;-121.358;2023-08-30T09:19:05;100714.03;;;26.48
49785;BMP280;35679;38.732;-121.358;2023-08-30T09:21:59;100723.25;;;26.47
49785;BMP280;35679;38.732;-121.358;2023-08-30T09:24:49;100724.59;;;26.44
49785;BMP280;35679;38.732;-121.358;2023-08-30T09:27:39;100719.44;;;26.43
49785;BMP280;35679;38.732;-121.358;2023-08-30T09:30:30;100719.97;;;26.40
49785;BMP280;35679;38.732;-121.358;2023-08-30T09:33:30;100724.03;;;26.37
49785;BMP280;35679;38.732;-121.358;2023-08-30T09:36:22;100720.53;;;26.37
49785;BMP280;35679;38.732;-121.358;2023-08-30T09:39:13;100718.63;;;26.37
49785;BMP280;35679;38.732;-121.358;2023-08-30T09:42:03;100719.16;;;26.34
49785;BMP280;35679;38.732;-121.358;2023-08-30T09:44:53;100715.63;;;26.34
49785;BMP280;35679;38.732;-121.358;2023-08-30T09:47:47;100721.31;;;26.32
49785;BMP280;35679;38.732;-121.358;2023-08-30T09:50:37;100720.47;;;26.32
49785;BMP280;35679;38.732;-121.358;2023-08-30T09:53:29;100722.66;;;26.30
49785;BMP280;35679;38.732;-121.358;2023-08-30T09:56:22;100724.81;;;26.28
49785;BMP280;35679;38.732;-121.358;2023-08-30T09:59:13;100719.66;;;26.26
49785;BMP280;35679;38.732;-121.358;2023-08-30T10:02:03;100721.28;;;26.22
49785;BMP280;35679;38.732;-121.358;2023-08-30T10:04:54;100718.59;;;26.22
49785;BMP280;35679;38.732;-121.358;2023-08-30T10:07:44;100723.44;;;26.20
49785;BMP280;35679;38.732;-121.358;2023-08-30T10:10:35;100726.97;;;26.21
49785;BMP280;35679;38.732;-121.358;2023-08-30T10:13:25;100727.50;;;26.18
49785;BMP280;35679;38.732;-121.358;2023-08-30T10:16:19;100727.78;;;26.16
49785;BMP280;35679;38.732;-121.358;2023-08-30T10:19:25;100730.47;;;26.16
49785;BMP280;35679;38.732;-121.358;2023-08-30T10:22:16;100725.84;;;26.12
49785;BMP280;35679;38.732;-121.358;2023-08-30T10:25:11;100717.75;;;26.12
49785;BMP280;35679;38.732;-121.358;2023-08-30T10:28:06;100719.09;;;26.09
49785;BMP280;35679;38.732;-121.358;2023-08-30T10:30:57;100723.16;;;26.07
49785;BMP280;35679;38.732;-121.358;2023-08-30T10:33:49;100721.78;;;26.04
49785;BMP280;35679;38.732;-121.358;2023-08-30T10:36:38;100723.97;;;26.02
49785;BMP280;35679;38.732;-121.358;2023-08-30T10:39:39;100716.66;;;26.03
49785;BMP280;35679;38.732;-121.358;2023-08-30T10:42:29;100718.81;;;26.01
49785;BMP280;35679;38.732;-121.358;2023-08-30T10:45:23;100728.03;;;26.00
49785;BMP280;35679;38.732;-121.358;2023-08-30T10:48:14;100719.34;;;25.98
49785;BMP280;35679;38.732;-121.358;2023-08-30T10:51:06;100713.38;;;25.96
49785;BMP280;35679;38.732;-121.358;2023-08-30T10:54:15;100713.13;;;25.92
49785;BMP280;35679;38.732;-121.358;2023-08-30T10:57:12;100723.13;;;25.92
49785;BMP280;35679;38.732;-121.358;2023-08-30T11:00:17;100713.38;;;25.91
49785;BMP280;35679;38.732;-121.358;2023-08-30T11:03:10;100713.66;;;25.89
49785;BMP280;35679;38.732;-121.358;2023-08-30T11:06:02;100712.28;;;25.87
49785;BMP280;35679;38.732;-121.358;2023-08-30T11:08:52;100707.97;;;25.86
49785;BMP280;35679;38.732;-121.358;2023-08-30T11:11:42;100713.38;;;25.86
49785;BMP280;35679;38.732;-121.358;2023-08-30T11:14:31;100711.72;;;25.85
49785;BMP280;35679;38.732;-121.358;2023-08-30T11:17:21;100708.13;;;25.65
49785;BMP280;35679;38.732;-121.358;2023-08-30T11:20:13;100712.78;;;25.18
49785;BMP280;35679;38.732;-121.358;2023-08-30T11:23:03;100717.16;;;24.51
49785;BMP280;35679;38.732;-121.358;2023-08-30T11:25:53;100725.09;;;23.84
49785;BMP280;35679;38.732;-121.358;2023-08-30T11:28:42;100724.88;;;23.48
49785;BMP280;35679;38.732;-121.358;2023-08-30T11:31:35;100723.09;;;23.15
49785;BMP280;35679;38.732;-121.358;2023-08-30T11:34:25;100726.03;;;22.81
49785;BMP280;35679;38.732;-121.358;2023-08-30T11:37:14;100720.75;;;22.70
49785;BMP280;35679;38.732;-121.358;2023-08-30T11:40:04;100721.50;;;22.65
49785;BMP280;35679;38.732;-121.358;2023-08-30T11:42:55;100726.63;;;22.50
49785;BMP280;35679;38.732;-121.358;2023-08-30T11:45:44;100731.75;;;22.08
49785;BMP280;35679;38.732;-121.358;2023-08-30T11:48:35;100739.06;;;21.96
49785;BMP280;35679;38.732;-121.358;2023-08-30T11:51:24;100733.84;;;21.78
49785;BMP280;35679;38.732;-121.358;2023-08-30T11:54:14;100734.94;;;21.66
49785;BMP280;35679;38.732;-121.358;2023-08-30T11:57:04;100737.69;;;21.54
49785;BMP280;35679;38.732;-121.358;2023-08-30T11:59:54;100728.22;;;21.40
49785;BMP280;35679;38.732;-121.358;2023-08-30T12:02:44;100730.22;;;21.33
49785;BMP280;35679;38.732;-121.358;2023-08-30T12:05:34;100726.97;;;21.20
49785;BMP280;35679;38.732;-121.358;2023-08-30T12:08:29;100723.00;;;21.11
49785;BMP280;35679;38.732;-121.358;2023-08-30T12:11:19;100726.84;;;21.04
49785;BMP280;35679;38.732;-121.358;2023-08-30T12:14:09;100725.81;;;21.05
49785;BMP280;35679;38.732;-121.358;2023-08-30T12:17:00;100720.78;;;20.85
49785;BMP280;35679;38.732;-121.358;2023-08-30T12:19:58;100727.63;;;20.70
49785;BMP280;35679;38.732;-121.358;2023-08-30T12:22:48;100727.28;;;20.66
49785;BMP280;35679;38.732;-121.358;2023-08-30T12:25:39;100733.69;;;20.54
49785;BMP280;35679;38.732;-121.358;2023-08-30T12:28:30;100741.13;;;20.52
49785;BMP280;35679;38.732;-121.358;2023-08-30T12:31:20;100737.75;;;20.45
49785;BMP280;35679;38.732;-121.358;2023-08-30T12:34:12;100732.63;;;20.55
49785;BMP280;35679;38.732;-121.358;2023-08-30T12:37:01;100737.28;;;20.48
49785;BMP280;35679;38.732;-121.358;2023-08-30T12:39:52;100744.34;;;20.31
49785;BMP280;35679;38.732;-121.358;2023-08-30T12:42:42;100742.66;;;20.19
49785;BMP280;35679;38.732;-121.358;2023-08-30T12:45:31;100745.81;;;20.16
49785;BMP280;35679;38.732;-121.358;2023-08-30T12:48:21;100744.41;;;20.13
49785;BMP280;35679;38.732;-121.358;2023-08-30T12:51:10;100747.31;;;20.12
49785;BMP280;35679;38.732;-121.358;2023-08-30T12:54:00;100757.41;;;19.98
49785;BMP280;35679;38.732;-121.358;2023-08-30T12:56:49;100754.59;;;19.93
49785;BMP280;35679;38.732;-121.358;2023-08-30T12:59:39;100750.28;;;19.92
49785;BMP280;35679;38.732;-121.358;2023-08-30T13:02:28;100753.75;;;19.93
49785;BMP280;35679;38.732;-121.358;2023-08-30T13:05:18;100758.13;;;19.87
49785;BMP280;35679;38.732;-121.358;2023-08-30T13:08:07;100758.91;;;19.76
49785;BMP280;35679;38.732;-121.358;2023-08-30T13:10:59;100757.41;;;19.63
49785;BMP280;35679;38.732;-121.358;2023-08-30T13:13:49;100760.53;;;19.60
49785;BMP280;35679;38.732;-121.358;2023-08-30T13:16:38;100761.56;;;19.59
49785;BMP280;35679;38.732;-121.358;2023-08-30T13:19:28;100767.63;;;19.54
49785;BMP280;35679;38.732;-121.358;2023-08-30T13:22:17;100766.94;;;19.41
49785;BMP280;35679;38.732;-121.358;2023-08-30T13:25:07;100767.97;;;19.40
49785;BMP280;35679;38.732;-121.358;2023-08-30T13:27:57;100763.50;;;19.34
49785;BMP280;35679;38.732;-121.358;2023-08-30T13:30:47;100778.38;;;19.30
49785;BMP280;35679;38.732;-121.358;2023-08-30T13:33:39;100786.81;;;19.27
49785;BMP280;35679;38.732;-121.358;2023-08-30T13:36:28;100780.13;;;19.18
49785;BMP280;35679;38.732;-121.358;2023-08-30T13:39:22;100791.72;;;19.12
49785;BMP280;35679;38.732;-121.358;2023-08-30T13:42:12;100787.56;;;19.16
49785;BMP280;35679;38.732;-121.358;2023-08-30T13:45:01;100786.59;;;19.10
49785;BMP280;35679;38.732;-121.358;2023-08-30T13:47:51;100790.06;;;19.11
49785;BMP280;35679;38.732;-121.358;2023-08-30T13:50:43;100782.50;;;19.08
49785;BMP280;35679;38.732;-121.358;2023-08-30T13:53:34;100789.72;;;19.01
49785;BMP280;35679;38.732;-121.358;2023-08-30T13:56:24;100784.44;;;18.95
49785;BMP280;35679;38.732;-121.358;2023-08-30T13:59:13;100798.81;;;19.00
49785;BMP280;35679;38.732;-121.358;2023-08-30T14:02:04;100797.41;;;18.91
49785;BMP280;35679;38.732;-121.358;2023-08-30T14:04:54;100799.13;;;18.86
49785;BMP280;35679;38.732;-121.358;2023-08-30T14:07:43;100809.06;;;18.79
49785;BMP280;35679;38.732;-121.358;2023-08-30T14:10:35;100811.50;;;18.80
49785;BMP280;35679;38.732;-121.358;2023-08-30T14:13:24;100820.28;;;18.87
49785;BMP280;35679;38.732;-121.358;2023-08-30T14:16:14;100823.66;;;19.07
49785;BMP280;35679;38.732;-121.358;2023-08-30T14:19:04;100828.13;;;19.73
49785;BMP280;35679;38.732;-121.358;2023-08-30T14:21:55;100835.50;;;20.13
49785;BMP280;35679;38.732;-121.358;2023-08-30T14:24:47;100831.28;;;20.35
49785;BMP280;35679;38.732;-121.358;2023-08-30T14:27:55;100827.13;;;20.50
49785;BMP280;35679;38.732;-121.358;2023-08-30T14:30:45;100839.53;;;20.63
49785;BMP280;35679;38.732;-121.358;2023-08-30T14:33:35;100839.78;;;20.73
49785;BMP280;35679;38.732;-121.358;2023-08-30T14:36:25;100839.50;;;20.81
49785;BMP280;35679;38.732;-121.358;2023-08-30T14:39:15;100832.75;;;20.90
49785;BMP280;35679;38.732;-121.358;2023-08-30T14:42:04;100836.91;;;20.16
49785;BMP280;35679;38.732;-121.358;2023-08-30T14:44:54;100846.22;;;19.77
49785;BMP280;35679;38.732;-121.358;2023-08-30T14:47:43;100841.38;;;19.68
49785;BMP280;35679;38.732;-121.358;2023-08-30T14:50:32;100836.09;;;19.62
49785;BMP280;35679;38.732;-121.358;2023-08-30T14:53:22;100838.63;;;19.57
49785;BMP280;35679;38.732;-121.358;2023-08-30T14:56:17;100843.13;;;19.56
49785;BMP280;35679;38.732;-121.358;2023-08-30T14:59:06;100849.91;;;19.59
49785;BMP280;35679;38.732;-121.358;2023-08-30T15:01:56;100853.19;;;19.61
49785;BMP280;35679;38.732;-121.358;2023-08-30T15:04:46;100846.34;;;19.65
49785;BMP280;35679;38.732;-121.358;2023-08-30T15:07:36;100863.97;;;19.72
49785;BMP280;35679;38.732;-121.358;2023-08-30T15:10:25;100859.22;;;19.74
49785;BMP280;35679;38.732;-121.358;2023-08-30T15:13:15;100850.06;;;19.81
49785;BMP280;35679;38.732;-121.358;2023-08-30T15:16:04;100858.47;;;19.85
49785;BMP280;35679;38.732;-121.358;2023-08-30T15:18:54;100858.94;;;20.00
49785;BMP280;35679;38.732;-121.358;2023-08-30T15:21:45;100858.94;;;20.00
49785;BMP280;35679;38.732;-121.358;2023-08-30T15:24:34;100855.16;;;20.07
49785;BMP280;35679;38.732;-121.358;2023-08-30T15:27:26;100855.44;;;20.17
49785;BMP280;35679;38.732;-121.358;2023-08-30T15:30:16;100864.78;;;20.26